Time;durP1;ratioP1;P1;durP2;ratioP2;P2;SDS_P1;SDS_P2;PMS_P1;PMS_P2;Temp;Humidity;BMP_temperature;BMP_pressure;BME280_temperature;BME280_humidity;BME280_pressure;Samples;Min_cycle;Max_cycle;Signal;HPM_P1;HPM_P2
2021/12/04 00:01:56;;;;;;;2.05;0.82;;;7.80;70.10;;;;;;2565902;53;20955;-70
2021/12/04 00:04:30;;;;;;;1.87;0.77;;;7.80;70.40;;;;;;2559496;53;20943;-70
2021/12/04 00:06:56;;;;;;;1.75;0.75;;;7.80;70.50;;;;;;2337575;54;20992;-71
2021/12/04 00:09:22;;;;;;;2.15;0.70;;;7.80;70.60;;;;;;2574593;53;20950;-71
2021/12/04 00:11:58;;;;;;;1.60;0.70;;;7.80;70.80;;;;;;2322751;54;21500;-72
2021/12/04 00:14:25;;;;;;;2.37;0.80;;;7.80;71.10;;;;;;2318333;54;21116;-71
2021/12/04 00:16:52;;;;;;;1.98;0.75;;;7.80;71.40;;;;;;2342864;54;20941;-72
2021/12/04 00:19:34;;;;;;;1.65;0.65;;;7.90;71.60;;;;;;2324841;54;20985;-71
2021/12/04 00:22:00;;;;;;;2.35;0.70;;;7.90;71.50;;;;;;2336496;54;20921;-73
2021/12/04 00:24:29;;;;;;;1.70;0.65;;;7.90;71.90;;;;;;2585431;53;20981;-71
2021/12/04 00:26:55;;;;;;;1.85;0.57;;;7.90;71.90;;;;;;2567563;53;20978;-71
2021/12/04 00:29:22;;;;;;;2.33;0.70;;;7.90;72.00;;;;;;2554432;53;20974;-72
2021/12/04 00:31:54;;;;;;;2.25;0.68;;;7.90;72.10;;;;;;2339501;53;21009;-73
2021/12/04 00:34:22;;;;;;;1.20;0.50;;;7.90;72.10;;;;;;2338198;54;21018;-72
2021/12/04 00:37:04;;;;;;;1.67;0.47;;;8.00;72.30;;;;;;2319134;54;21536;-72
2021/12/04 00:49:49;;;;;;;1.58;0.60;;;8.10;72.50;;;;;;2333020;54;20933;-72
2021/12/04 00:52:15;;;;;;;1.83;0.70;;;8.00;72.40;;;;;;2341689;54;20909;-72
2021/12/04 00:54:44;;;;;;;1.52;0.60;;;8.10;72.60;;;;;;2587186;53;20961;-72
2021/12/04 00:57:13;;;;;;;0.80;0.40;;;8.10;72.90;;;;;;2340914;54;20969;-71
2021/12/04 00:59:39;;;;;;;1.25;0.60;;;8.10;73.10;;;;;;2317684;54;20965;-72
2021/12/04 01:02:05;;;;;;;1.67;0.62;;;8.10;73.00;;;;;;2330476;54;20959;-72
2021/12/04 01:04:32;;;;;;;1.70;0.57;;;8.10;73.10;;;;;;2306176;54;20947;-73
2021/12/04 01:06:59;;;;;;;1.08;0.50;;;8.10;73.20;;;;;;2338185;54;20967;-72
2021/12/04 01:09:25;;;;;;;1.70;0.68;;;8.20;73.40;;;;;;2312092;54;20947;-73
2021/12/04 01:11:52;;;;;;;1.45;0.68;;;8.20;73.50;;;;;;2312856;54;20938;-72
2021/12/04 01:14:20;;;;;;;1.42;0.60;;;8.30;73.70;;;;;;2321314;54;21018;-72
2021/12/04 01:16:47;;;;;;;1.92;0.70;;;8.30;73.80;;;;;;2329925;54;21008;-72
2021/12/04 01:19:14;;;;;;;1.40;0.60;;;8.40;73.70;;;;;;2341414;54;21008;-72
2021/12/04 01:21:41;;;;;;;1.20;0.55;;;8.40;73.70;;;;;;2577960;53;21010;-72
2021/12/04 01:24:08;;;;;;;2.58;0.70;;;8.40;73.80;;;;;;2322075;54;21900;-72
2021/12/04 01:26:34;;;;;;;2.05;0.70;;;8.40;73.90;;;;;;2578233;53;21015;-72
2021/12/04 01:29:00;;;;;;;1.92;0.77;;;8.50;74.00;;;;;;2321945;54;20917;-72
2021/12/04 01:31:26;;;;;;;1.42;0.68;;;8.50;73.80;;;;;;2555365;53;21061;-73
2021/12/04 01:33:55;;;;;;;1.67;0.70;;;8.50;73.70;;;;;;2580397;53;20978;-72
2021/12/04 01:36:21;;;;;;;2.10;0.80;;;8.60;73.70;;;;;;2321836;54;22217;-72
2021/12/04 01:38:47;;;;;;;1.65;0.70;;;8.60;73.50;;;;;;2340897;54;21492;-72
2021/12/04 01:41:14;;;;;;;1.08;0.52;;;8.60;73.50;;;;;;2337186;54;20933;-71
2021/12/04 01:43:40;;;;;;;1.75;0.80;;;8.60;73.50;;;;;;2586583;53;21000;-72
2021/12/04 01:46:06;;;;;;;1.92;0.60;;;8.70;73.60;;;;;;2344639;54;20985;-72
2021/12/04 01:48:33;;;;;;;1.90;0.70;;;8.70;73.50;;;;;;2555248;53;20980;-72
2021/12/04 01:51:03;;;;;;;1.60;0.70;;;8.70;73.80;;;;;;2587292;53;20940;-72
2021/12/04 01:53:30;;;;;;;1.87;0.68;;;8.70;73.70;;;;;;2318105;55;20945;-72
2021/12/04 01:55:56;;;;;;;2.25;0.80;;;8.80;73.60;;;;;;2341184;54;20924;-72
2021/12/04 01:58:23;;;;;;;2.17;0.80;;;8.80;73.50;;;;;;2587397;53;20953;-72
2021/12/04 02:00:50;;;;;;;2.25;0.70;;;8.80;73.50;;;;;;2341280;54;20957;-72
2021/12/04 02:03:18;;;;;;;1.70;0.70;;;8.80;73.60;;;;;;2340842;54;20953;-72
2021/12/04 02:05:47;;;;;;;2.05;0.88;;;8.80;73.60;;;;;;2586880;53;20941;-72
2021/12/04 02:08:24;;;;;;;1.83;0.70;;;8.80;73.70;;;;;;2586890;53;20973;-72
2021/12/04 02:10:55;;;;;;;1.70;0.60;;;8.90;73.70;;;;;;2328101;54;20926;-73
2021/12/04 02:13:21;;;;;;;1.45;0.60;;;8.90;73.70;;;;;;2576718;53;20981;-72
2021/12/04 02:15:48;;;;;;;1.05;0.55;;;8.90;73.80;;;;;;2321991;54;21022;-72
2021/12/04 02:18:17;;;;;;;1.95;0.62;;;8.90;73.90;;;;;;2336838;54;20940;-72
2021/12/04 02:20:44;;;;;;;2.00;0.85;;;8.90;73.80;;;;;;2318149;54;20934;-72
2021/12/04 02:23:10;;;;;;;1.35;0.50;;;9.00;73.60;;;;;;2569906;53;21262;-72
2021/12/04 02:25:36;;;;;;;1.45;0.60;;;8.90;73.60;;;;;;2328805;54;20953;-72
2021/12/04 02:28:04;;;;;;;2.95;0.70;;;8.90;73.80;;;;;;2330617;54;20970;-73
2021/12/04 02:30:35;;;;;;;3.80;1.00;;;9.00;73.70;;;;;;2311874;55;21000;-72
2021/12/04 02:33:10;;;;;;;2.50;0.80;;;9.00;73.40;;;;;;2587136;53;20936;-73
2021/12/04 02:35:40;;;;;;;2.47;0.90;;;9.00;73.60;;;;;;2556175;53;21894;-72
2021/12/04 02:38:08;;;;;;;2.72;0.88;;;9.00;73.60;;;;;;2556140;53;20920;-72
2021/12/04 02:40:37;;;;;;;1.90;1.00;;;9.00;73.60;;;;;;2311169;54;20991;-73
2021/12/04 02:43:03;;;;;;;2.55;0.98;;;8.90;74.00;;;;;;2310978;54;21458;-72
2021/12/04 02:45:30;;;;;;;1.95;0.82;;;9.00;73.40;;;;;;2548312;54;20952;-73
2021/12/04 02:47:56;;;;;;;2.62;1.00;;;8.90;73.40;;;;;;2332113;54;20960;-72
2021/12/04 02:50:22;;;;;;;1.90;0.80;;;8.90;73.50;;;;;;2341117;54;21375;-73
2021/12/04 02:52:49;;;;;;;1.95;0.90;;;8.90;73.60;;;;;;2330717;54;21725;-73
2021/12/04 02:55:16;;;;;;;1.40;0.60;;;8.90;73.70;;;;;;2329470;54;20902;-72
2021/12/04 02:57:44;;;;;;;2.08;0.90;;;8.90;73.80;;;;;;2335246;54;21030;-73
2021/12/04 03:00:25;;;;;;;3.42;1.05;;;8.90;74.00;;;;;;2316345;54;21027;-73
2021/12/04 03:02:51;;;;;;;2.03;0.85;;;8.90;74.00;;;;;;2330936;54;22025;-73
2021/12/04 03:05:23;;;;;;;1.90;0.80;;;8.90;74.10;;;;;;2340208;54;21044;-73
2021/12/04 03:07:53;;;;;;;1.80;0.75;;;8.90;74.20;;;;;;2340891;54;20965;-73
2021/12/04 03:10:21;;;;;;;1.50;0.65;;;8.90;74.20;;;;;;2587123;53;20964;-73
2021/12/04 03:12:47;;;;;;;1.70;0.73;;;8.90;74.30;;;;;;2341417;54;21008;-72
2021/12/04 03:15:14;;;;;;;1.37;0.62;;;8.90;74.60;;;;;;2344516;54;20937;-72
2021/12/04 03:17:40;;;;;;;1.23;0.55;;;8.90;74.70;;;;;;2318320;54;21020;-73
2021/12/04 03:20:07;;;;;;;1.45;0.62;;;8.90;74.70;;;;;;2341191;54;20937;-73
2021/12/04 03:22:33;;;;;;;0.62;0.40;;;8.90;74.80;;;;;;2341510;54;21040;-73
2021/12/04 03:24:59;;;;;;;1.10;0.50;;;9.00;75.00;;;;;;2317549;54;20966;-73
2021/12/04 03:27:28;;;;;;;1.40;0.57;;;9.00;75.00;;;;;;2587765;53;20953;-73
2021/12/04 03:29:59;;;;;;;1.02;0.47;;;9.00;75.20;;;;;;2325845;54;21077;-73
2021/12/04 03:32:55;;;;;;;1.35;0.52;;;9.00;75.40;;;;;;2336502;54;20988;-73
2021/12/04 03:35:25;;;;;;;1.10;0.50;;;9.10;75.50;;;;;;2341750;54;21850;-73
2021/12/04 03:40:55;;;;;;;1.23;0.60;;;9.20;75.80;;;;;;2341472;54;20965;-73
2021/12/04 03:43:45;;;;;;;1.33;0.70;;;9.20;75.80;;;;;;2587302;53;20957;-73
2021/12/04 03:46:18;;;;;;;1.87;0.90;;;9.30;76.00;;;;;;2319828;54;21006;-73
2021/12/04 03:48:50;;;;;;;1.30;0.70;;;9.30;75.90;;;;;;2323386;54;20942;-73
2021/12/04 03:51:17;;;;;;;1.50;0.70;;;9.40;76.00;;;;;;2335998;54;20981;-73
2021/12/04 03:53:44;;;;;;;1.42;0.62;;;9.40;75.90;;;;;;2318655;54;20955;-73
2021/12/04 03:56:12;;;;;;;1.67;0.77;;;9.50;76.10;;;;;;2341502;54;20942;-73
2021/12/04 03:58:39;;;;;;;0.93;0.50;;;9.50;76.10;;;;;;2341978;54;20929;-73
2021/12/04 04:01:05;;;;;;;1.10;0.50;;;9.60;76.00;;;;;;2317118;54;20954;-72
2021/12/04 04:03:32;;;;;;;2.25;0.70;;;9.60;76.10;;;;;;2339858;54;20957;-73
2021/12/04 04:05:59;;;;;;;1.95;0.90;;;9.60;76.00;;;;;;2341854;54;20953;-74
2021/12/04 04:08:25;;;;;;;1.70;0.60;;;9.70;76.30;;;;;;2316840;54;20996;-73
2021/12/04 04:10:54;;;;;;;1.45;0.65;;;9.80;76.20;;;;;;2587629;53;20911;-73
2021/12/04 04:13:23;;;;;;;1.25;0.50;;;9.80;76.30;;;;;;2562552;53;20950;-73
2021/12/04 04:15:49;;;;;;;1.50;0.50;;;9.80;76.20;;;;;;2333858;54;21899;-74
2021/12/04 04:18:15;;;;;;;1.42;0.52;;;9.90;76.20;;;;;;2323230;54;20951;-73
2021/12/04 04:20:41;;;;;;;1.23;0.52;;;9.90;76.10;;;;;;2329845;54;21320;-73
2021/12/04 04:23:08;;;;;;;0.80;0.40;;;9.90;75.90;;;;;;2576275;53;20993;-73
2021/12/04 04:25:34;;;;;;;1.30;0.57;;;10.00;74.90;;;;;;2341809;54;20929;-73
2021/12/04 04:28:03;;;;;;;1.55;0.70;;;10.00;74.90;;;;;;2341649;54;20957;-74
2021/12/04 04:30:29;;;;;;;1.60;0.60;;;10.00;74.90;;;;;;2559471;53;20950;-73
2021/12/04 04:32:55;;;;;;;1.83;0.80;;;10.10;74.90;;;;;;2334653;54;20980;-73
2021/12/04 04:35:25;;;;;;;1.35;0.60;;;10.10;74.90;;;;;;2581255;53;20953;-73
2021/12/04 04:59:34;;;;;;;0.82;0.40;;;10.40;74.70;;;;;;2332028;54;20983;-74
2021/12/04 05:16:28;;;;;;;0.88;0.40;;;10.50;74.40;;;;;;2554111;53;21084;-73
2021/12/04 05:19:11;;;;;;;0.40;0.30;;;10.50;74.30;;;;;;2334088;54;21003;-73
2021/12/04 05:21:37;;;;;;;1.02;0.50;;;10.50;74.50;;;;;;2331725;54;20933;-74
2021/12/04 05:24:04;;;;;;;0.73;0.30;;;10.50;74.80;;;;;;2336949;54;20970;-74
2021/12/04 05:26:31;;;;;;;0.50;0.30;;;10.50;74.90;;;;;;2322672;54;21017;-73
2021/12/04 05:28:58;;;;;;;0.47;0.30;;;10.50;75.10;;;;;;2318624;54;20981;-74
2021/12/04 05:31:25;;;;;;;0.88;0.40;;;10.50;75.20;;;;;;2340985;54;20984;-74
2021/12/04 05:33:52;;;;;;;1.77;0.32;;;10.50;75.30;;;;;;2319347;54;20918;-74
2021/12/04 05:36:18;;;;;;;0.50;0.30;;;10.60;75.50;;;;;;2340939;54;21477;-74
2021/12/04 05:38:45;;;;;;;1.12;0.50;;;10.60;75.50;;;;;;2334610;54;20998;-74
2021/12/04 05:41:11;;;;;;;0.68;0.37;;;10.60;75.60;;;;;;2562780;53;21491;-74
2021/12/04 05:43:39;;;;;;;0.80;0.30;;;10.70;75.60;;;;;;2548762;54;21527;-74
2021/12/04 05:46:12;;;;;;;0.82;0.37;;;10.70;75.50;;;;;;2312322;54;20998;-74
2021/12/04 05:49:18;;;;;;;0.68;0.30;;;10.70;75.30;;;;;;2331584;54;20937;-74
2021/12/04 05:54:48;;;;;;;0.30;0.20;;;10.80;75.40;;;;;;2587207;53;20956;-74
2021/12/04 05:57:14;;;;;;;1.25;0.30;;;10.60;75.20;;;;;;2586876;53;21060;-74
2021/12/04 05:59:41;;;;;;;1.75;0.43;;;10.80;75.30;;;;;;2341066;54;21496;-74
2021/12/04 06:02:07;;;;;;;0.65;0.30;;;10.90;75.40;;;;;;2554232;53;21010;-73
2021/12/04 06:04:33;;;;;;;0.43;0.10;;;10.90;75.60;;;;;;2584230;53;20952;-74
2021/12/04 06:07:00;;;;;;;0.35;0.20;;;11.00;75.70;;;;;;2554419;53;20950;-74
2021/12/04 06:09:27;;;;;;;1.08;0.30;;;11.00;75.80;;;;;;2325688;54;21127;-74
2021/12/04 06:11:54;;;;;;;0.20;0.13;;;11.00;75.60;;;;;;2334155;54;21661;-74
2021/12/04 06:14:20;;;;;;;0.37;0.20;;;11.10;75.60;;;;;;2341401;54;21415;-74
2021/12/04 06:16:47;;;;;;;0.80;0.30;;;11.10;75.70;;;;;;2341053;54;21866;-73
2021/12/04 06:19:25;;;;;;;0.15;0.15;;;11.10;75.60;;;;;;2331854;54;21009;-73
2021/12/04 06:24:36;;;;;;;0.43;0.20;;;11.20;75.60;;;;;;2322289;54;20956;-74
2021/12/04 06:27:03;;;;;;;1.33;0.40;;;11.20;75.40;;;;;;2577530;53;20971;-73
2021/12/04 06:29:30;;;;;;;0.35;0.20;;;11.30;75.30;;;;;;2321393;54;20933;-74
2021/12/04 06:31:57;;;;;;;0.75;0.30;;;11.30;75.30;;;;;;2317131;55;20921;-74
2021/12/04 06:34:24;;;;;;;0.80;0.20;;;11.30;75.40;;;;;;2341189;54;20946;-74
2021/12/04 06:36:50;;;;;;;0.25;0.10;;;11.30;75.60;;;;;;2333368;54;21030;-74
2021/12/04 06:39:16;;;;;;;0.70;0.20;;;11.40;75.70;;;;;;2326028;54;21659;-73
2021/12/04 06:41:42;;;;;;;0.52;0.22;;;11.40;75.40;;;;;;2334864;54;21475;-73
2021/12/04 06:44:11;;;;;;;0.10;0.10;;;11.50;75.60;;;;;;2325744;54;21821;-73
2021/12/04 06:46:38;;;;;;;0.60;0.30;;;11.10;75.10;;;;;;2322184;54;20985;-74
2021/12/04 06:49:16;;;;;;;0.65;0.20;;;11.50;75.50;;;;;;2325292;54;20932;-74
2021/12/04 06:51:47;;;;;;;0.52;0.47;;;11.50;75.50;;;;;;2554221;53;21025;-74
2021/12/04 06:54:19;;;;;;;0.40;0.20;;;11.50;75.40;;;;;;2340711;54;21031;-74
2021/12/04 06:56:46;;;;;;;;;;;11.50;75.40;;;;;;2339404;54;21073;-74
2021/12/04 06:59:15;;;;;;;0.20;0.20;;;11.60;74.80;;;;;;2323588;54;20075;-74
2021/12/04 07:01:42;;;;;;;0.30;0.10;;;11.60;75.50;;;;;;2322738;54;21026;-74
2021/12/04 07:04:12;;;;;;;0.20;0.20;;;11.60;75.30;;;;;;2336170;54;20912;-74
2021/12/04 07:06:39;;;;;;;0.32;0.20;;;11.70;75.30;;;;;;2337737;54;21498;-74
2021/12/04 07:09:08;;;;;;;1.67;0.22;;;11.70;75.40;;;;;;2327158;54;20993;-75
2021/12/04 07:11:35;;;;;;;0.40;0.20;;;11.60;75.30;;;;;;2323857;54;20954;-74
2021/12/04 07:14:01;;;;;;;0.17;0.13;;;11.70;75.40;;;;;;2555204;53;20994;-74
2021/12/04 07:16:27;;;;;;;0.30;0.20;;;11.70;75.50;;;;;;2555173;53;20941;-74
2021/12/04 07:18:54;;;;;;;0.30;0.20;;;11.70;75.60;;;;;;2332915;54;20972;-74
2021/12/04 07:21:20;;;;;;;1.30;0.30;;;11.80;75.50;;;;;;2587101;53;21283;-74
2021/12/04 07:23:49;;;;;;;0.55;0.20;;;11.80;75.50;;;;;;2560673;53;20958;-74
2021/12/04 07:26:15;;;;;;;1.27;0.50;;;11.90;75.40;;;;;;2337551;54;21004;-74
2021/12/04 07:28:41;;;;;;;1.27;0.40;;;11.80;75.50;;;;;;2323890;54;20931;-74
2021/12/04 07:31:08;;;;;;;0.65;0.40;;;11.90;75.60;;;;;;2575846;53;20954;-74
2021/12/04 07:33:34;;;;;;;0.82;0.37;;;11.90;75.50;;;;;;2341587;54;20901;-75
2021/12/04 07:36:00;;;;;;;0.45;0.28;;;11.90;75.50;;;;;;2552797;53;20994;-74
2021/12/04 07:38:30;;;;;;;2.58;0.50;;;11.90;75.70;;;;;;2325486;54;21003;-75
2021/12/04 07:40:59;;;;;;;0.43;0.30;;;12.00;75.80;;;;;;2324654;54;20925;-74
2021/12/04 07:43:27;;;;;;;0.35;0.20;;;12.00;75.90;;;;;;2547336;53;20951;-75
2021/12/04 07:45:53;;;;;;;0.45;0.20;;;12.00;75.70;;;;;;2570311;53;21848;-75
2021/12/04 07:48:20;;;;;;;0.43;0.20;;;12.00;75.70;;;;;;2329113;54;21004;-74
2021/12/04 07:50:48;;;;;;;0.98;0.40;;;12.10;75.90;;;;;;2340535;54;20921;-75
2021/12/04 07:53:15;;;;;;;0.62;0.30;;;12.10;75.70;;;;;;2545516;54;20962;-75
2021/12/04 07:55:41;;;;;;;0.52;0.20;;;12.20;76.00;;;;;;2318787;54;21857;-75
2021/12/04 07:58:08;;;;;;;1.00;0.47;;;12.20;76.10;;;;;;2550971;53;21057;-75
2021/12/04 08:00:34;;;;;;;0.50;0.30;;;12.20;76.00;;;;;;2556348;53;21002;-75
2021/12/04 08:03:03;;;;;;;0.68;0.40;;;12.20;76.00;;;;;;2563976;53;21016;-75
2021/12/04 08:05:29;;;;;;;1.50;0.70;;;12.30;76.20;;;;;;2547521;53;20993;-75
2021/12/04 08:07:57;;;;;;;1.02;0.55;;;12.30;76.00;;;;;;2572166;53;20966;-75
2021/12/04 08:10:23;;;;;;;2.03;0.60;;;12.40;76.10;;;;;;2561877;53;21012;-75
2021/12/04 08:12:49;;;;;;;1.08;0.40;;;12.40;76.10;;;;;;2319874;54;21416;-76
2021/12/04 08:15:17;;;;;;;1.70;0.50;;;12.40;75.90;;;;;;2325237;54;21030;-75
2021/12/04 08:17:46;;;;;;;0.85;0.40;;;12.50;76.20;;;;;;2330212;54;21954;-75
2021/12/04 08:20:13;;;;;;;1.95;0.40;;;12.50;76.00;;;;;;2587154;53;20948;-75
2021/12/04 08:22:41;;;;;;;0.20;0.20;;;12.50;76.00;;;;;;2341015;54;20905;-75
2021/12/04 08:25:08;;;;;;;0.50;0.30;;;12.50;76.10;;;;;;2337190;54;20978;-75
2021/12/04 08:27:35;;;;;;;0.60;0.35;;;12.60;75.90;;;;;;2325040;54;21009;-75
2021/12/04 08:30:03;;;;;;;0.65;0.30;;;12.60;76.00;;;;;;2553410;53;20945;-75
2021/12/04 08:32:29;;;;;;;1.10;0.40;;;12.60;76.10;;;;;;2316591;54;21011;-75
2021/12/04 08:34:56;;;;;;;0.40;0.25;;;12.70;76.10;;;;;;2340405;54;21107;-75
2021/12/04 08:37:22;;;;;;;0.60;0.30;;;12.70;75.90;;;;;;2559566;53;20944;-75
2021/12/04 08:39:50;;;;;;;0.90;0.32;;;12.70;76.00;;;;;;2341164;54;21028;-75
2021/12/04 08:42:19;;;;;;;0.88;0.35;;;12.80;76.10;;;;;;2341607;54;21020;-75
2021/12/04 08:44:49;;;;;;;1.58;0.40;;;12.80;76.20;;;;;;2587682;53;21037;-75
2021/12/04 08:47:15;;;;;;;0.80;0.40;;;12.80;76.10;;;;;;2341158;54;20933;-75
2021/12/04 08:49:43;;;;;;;2.65;0.40;;;12.80;76.00;;;;;;2339814;54;20957;-75
2021/12/04 08:52:17;;;;;;;0.77;0.40;;;12.90;76.20;;;;;;2324275;54;20957;-74
2021/12/04 08:54:43;;;;;;;0.62;0.30;;;12.90;76.40;;;;;;2581432;53;21004;-75
2021/12/04 08:57:11;;;;;;;1.05;0.40;;;13.00;76.30;;;;;;2333653;54;20930;-74
2021/12/04 08:59:37;;;;;;;0.50;0.30;;;13.00;76.60;;;;;;2320857;54;20913;-75
2021/12/04 09:02:03;;;;;;;1.40;0.37;;;13.00;76.50;;;;;;2558122;53;20954;-75
2021/12/04 09:04:31;;;;;;;0.60;0.30;;;13.10;76.70;;;;;;2547293;53;21002;-75
2021/12/04 09:06:58;;;;;;;0.73;0.40;;;13.10;76.20;;;;;;2585097;53;20941;-75
2021/12/04 09:09:24;;;;;;;0.62;0.30;;;13.10;76.10;;;;;;2338191;54;20938;-75
2021/12/04 09:12:04;;;;;;;0.98;0.35;;;13.20;76.40;;;;;;2325274;54;21048;-75
2021/12/04 09:14:31;;;;;;;0.68;0.37;;;13.20;76.50;;;;;;2340816;54;20940;-74
2021/12/04 09:16:58;;;;;;;0.62;0.30;;;13.20;76.10;;;;;;2553565;53;21082;-75
2021/12/04 09:19:26;;;;;;;0.95;0.40;;;13.30;76.00;;;;;;2575009;53;21097;-74
2021/12/04 09:21:53;;;;;;;0.73;0.30;;;13.20;76.30;;;;;;2564219;53;21044;-76
2021/12/04 09:24:26;;;;;;;0.50;0.20;;;13.30;76.50;;;;;;2573980;53;20982;-75
2021/12/04 09:27:20;;;;;;;2.67;0.43;;;13.30;76.50;;;;;;2563800;53;21068;-75
2021/12/04 10:04:39;;;;;;;0.47;0.22;;;13.70;75.70;;;;;;2341273;54;21077;-75
2021/12/04 10:33:49;;;;;;;2.20;0.80;;;13.50;75.00;;;;;;2553260;54;20955;-75
2021/12/04 10:36:32;;;;;;;2.20;0.70;;;13.50;75.40;;;;;;2549363;53;20992;-75
2021/12/04 10:38:59;;;;;;;1.58;0.50;;;13.50;75.50;;;;;;2310761;54;21051;-75
2021/12/04 10:41:44;;;;;;;1.67;0.40;;;13.50;76.10;;;;;;2295946;54;21088;-74
2021/12/04 10:44:21;;;;;;;0.80;0.40;;;13.50;75.80;;;;;;2295927;55;20989;-75
2021/12/04 10:47:10;;;;;;;0.80;0.40;;;13.50;75.90;;;;;;2560176;53;20973;-76
2021/12/04 10:50:40;;;;;;;0.65;0.30;;;13.60;76.30;;;;;;2320177;54;21007;-75
2021/12/04 10:53:11;;;;;;;0.37;0.28;;;13.60;76.20;;;;;;2332613;55;21069;-75
2021/12/04 10:56:36;;;;;;;1.10;0.32;;;13.60;76.60;;;;;;2336425;55;20996;-76
2021/12/04 10:59:22;;;;;;;0.70;0.32;;;13.60;76.40;;;;;;2580936;53;20943;-76
2021/12/04 11:02:17;;;;;;;0.77;0.30;;;13.70;76.30;;;;;;2337260;54;20928;-76
2021/12/04 11:04:52;;;;;;;0.35;0.20;;;13.50;75.90;;;;;;2323749;54;20979;-76
2021/12/04 11:19:08;;;;;;;0.62;0.30;;;13.80;76.00;;;;;;2337003;55;20986;-76
2021/12/04 11:21:56;;;;;;;1.02;0.30;;;13.90;76.30;;;;;;2338000;55;21715;-75
2021/12/04 11:24:42;;;;;;;0.80;0.30;;;13.90;76.30;;;;;;2581836;53;20953;-75
2021/12/04 11:27:34;;;;;;;0.80;0.30;;;13.90;75.90;;;;;;2581541;53;20935;-76
2021/12/04 11:43:59;;;;;;;1.02;0.35;;;14.00;75.50;;;;;;2336872;55;20922;-75
2021/12/04 11:46:46;;;;;;;0.65;0.32;;;14.00;75.30;;;;;;2318522;55;20952;-76
2021/12/04 11:49:20;;;;;;;2.40;0.30;;;14.00;75.30;;;;;;2470689;53;1423919;-75
2021/12/04 11:51:55;;;;;;;1.10;0.40;;;14.00;75.30;;;;;;2308869;54;21335;-76
2021/12/04 11:54:21;;;;;;;1.50;0.40;;;13.90;75.30;;;;;;2302633;54;20961;-75
2021/12/04 11:56:57;;;;;;;1.42;0.50;;;13.90;74.90;;;;;;2311130;54;20978;-75
2021/12/04 11:59:32;;;;;;;1.55;0.45;;;13.90;74.30;;;;;;2290784;54;21003;-74
2021/12/04 12:02:00;;;;;;;1.65;0.43;;;13.90;74.50;;;;;;2545224;53;22260;-75
2021/12/04 12:04:59;;;;;;;1.30;0.43;;;13.90;74.80;;;;;;2560295;53;20965;-75
2021/12/04 12:07:27;;;;;;;0.85;0.40;;;13.80;74.30;;;;;;2325755;54;20975;-75
2021/12/04 12:10:16;;;;;;;1.17;0.52;;;13.80;74.50;;;;;;2298457;55;20930;-75
2021/12/04 12:12:43;;;;;;;1.60;0.60;;;13.50;74.20;;;;;;2312341;54;21802;-75
2021/12/04 12:15:28;;;;;;;0.52;0.30;;;13.70;74.30;;;;;;2294452;54;20966;-75
2021/12/04 12:17:55;;;;;;;1.02;0.47;;;13.70;74.30;;;;;;2313933;55;20948;-75
2021/12/04 12:20:37;;;;;;;1.45;0.40;;;13.60;74.20;;;;;;2291552;54;21007;-76
2021/12/04 12:23:06;;;;;;;1.12;0.40;;;13.60;74.20;;;;;;2549436;53;20971;-76
2021/12/04 12:36:53;;;;;;;1.10;0.50;;;13.30;74.50;;;;;;2554503;54;20985;-75
2021/12/04 12:39:20;;;;;;;1.25;0.50;;;13.20;74.60;;;;;;2314265;54;20934;-75
2021/12/04 12:41:48;;;;;;;1.20;0.40;;;13.20;74.90;;;;;;2554172;54;20959;-75
2021/12/04 12:44:47;;;;;;;1.10;0.40;;;13.30;75.30;;;;;;2317426;54;21095;-75
2021/12/04 12:47:17;;;;;;;2.70;0.45;;;13.20;74.80;;;;;;2321852;54;20983;-75
2021/12/04 12:49:44;;;;;;;1.25;0.50;;;13.10;75.30;;;;;;2317193;54;20988;-75
2021/12/04 12:52:29;;;;;;;0.65;0.40;;;13.10;75.60;;;;;;2314763;54;21969;-75
2021/12/04 12:55:04;;;;;;;1.42;0.50;;;13.10;75.40;;;;;;2325930;53;20959;-75
2021/12/04 12:57:38;;;;;;;0.85;0.40;;;13.10;75.40;;;;;;2310962;54;21486;-75
2021/12/04 13:13:35;;;;;;;2.17;0.68;;;13.20;75.90;;;;;;2291627;55;21932;-75
2021/12/04 13:16:19;;;;;;;1.33;0.60;;;13.30;76.10;;;;;;2319151;54;20955;-75
2021/12/04 13:18:55;;;;;;;0.68;0.40;;;13.30;75.90;;;;;;2553981;54;21455;-75
2021/12/04 13:21:22;;;;;;;1.27;0.50;;;13.30;76.30;;;;;;2546598;53;21511;-75
2021/12/04 13:23:54;;;;;;;1.75;0.50;;;13.30;76.30;;;;;;2316664;54;21515;-75
2021/12/04 13:26:28;;;;;;;1.42;0.40;;;13.30;76.20;;;;;;2536530;54;21802;-75
2021/12/04 13:28:54;;;;;;;1.62;0.65;;;13.40;76.10;;;;;;2324645;54;21602;-75
2021/12/04 13:31:20;;;;;;;2.12;0.52;;;13.40;76.10;;;;;;2537820;53;21026;-75
2021/12/04 13:33:50;;;;;;;1.35;0.50;;;13.40;76.20;;;;;;2542893;53;20928;-75
2021/12/04 13:36:18;;;;;;;1.37;0.50;;;13.40;76.00;;;;;;2308300;54;21023;-76
2021/12/04 13:38:44;;;;;;;1.87;0.60;;;13.40;76.00;;;;;;2307871;55;21028;-76
2021/12/04 13:41:11;;;;;;;2.08;0.88;;;13.50;75.80;;;;;;2320310;55;21045;-75
2021/12/04 13:43:38;;;;;;;2.50;1.20;;;13.50;75.70;;;;;;2331470;54;21013;-75
2021/12/04 13:46:05;;;;;;;1.70;0.77;;;13.50;75.70;;;;;;2322971;54;20935;-76
2021/12/04 13:48:33;;;;;;;2.97;0.82;;;13.60;75.70;;;;;;2564049;53;21029;-76
2021/12/04 13:51:00;;;;;;;2.75;0.98;;;13.50;75.50;;;;;;2327034;54;20963;-76
2021/12/04 13:53:30;;;;;;;2.92;1.08;;;13.60;75.40;;;;;;2329427;54;20991;-76
2021/12/04 13:56:04;;;;;;;2.65;1.00;;;13.50;75.30;;;;;;2315078;54;20987;-76
2021/12/04 13:58:33;;;;;;;2.10;0.70;;;13.50;74.80;;;;;;2321936;54;20992;-75
2021/12/04 14:01:01;;;;;;;1.65;0.65;;;13.50;75.30;;;;;;2568038;53;20896;-75
2021/12/04 14:03:31;;;;;;;2.17;0.70;;;13.50;75.40;;;;;;2323502;54;20929;-78
2021/12/04 14:05:57;;;;;;;2.83;0.95;;;13.50;75.50;;;;;;2547440;53;20967;-76
2021/12/04 14:08:23;;;;;;;2.03;0.90;;;13.50;75.40;;;;;;2581833;53;20932;-76
2021/12/04 14:10:53;;;;;;;2.75;1.15;;;13.50;75.30;;;;;;2319583;54;21584;-76
2021/12/04 14:13:23;;;;;;;3.45;1.20;;;13.50;75.40;;;;;;2327691;54;20967;-76
2021/12/04 14:15:52;;;;;;;2.15;0.80;;;13.50;75.30;;;;;;2323161;54;20931;-76
2021/12/04 14:18:22;;;;;;;2.15;0.90;;;13.70;75.20;;;;;;2317498;54;20937;-75
2021/12/04 14:20:50;;;;;;;3.75;1.60;;;13.60;75.30;;;;;;2579223;53;20951;-75
2021/12/04 14:23:16;;;;;;;2.75;1.30;;;13.60;75.00;;;;;;2554785;53;20956;-76
2021/12/04 14:25:44;;;;;;;3.20;1.02;;;13.60;75.40;;;;;;2313027;54;20956;-76
2021/12/04 14:28:12;;;;;;;2.08;0.90;;;13.60;75.40;;;;;;2323575;54;21784;-75
2021/12/04 14:30:38;;;;;;;2.78;1.05;;;13.60;75.30;;;;;;2555600;53;20943;-75
2021/12/04 14:33:07;;;;;;;2.30;0.75;;;13.60;75.10;;;;;;2307721;54;21019;-76
2021/12/04 14:35:37;;;;;;;2.97;1.10;;;13.60;75.30;;;;;;2312288;55;21236;-76
2021/12/04 14:38:08;;;;;;;1.98;0.90;;;13.60;75.20;;;;;;2303010;55;21050;-76
2021/12/04 14:40:41;;;;;;;2.08;0.70;;;13.60;75.20;;;;;;2515891;54;20940;-75
2021/12/04 14:43:15;;;;;;;1.90;0.73;;;13.60;75.20;;;;;;2554785;54;21253;-76
2021/12/04 14:45:44;;;;;;;1.73;0.70;;;13.60;75.00;;;;;;2554872;54;21865;-76
2021/12/04 14:48:14;;;;;;;1.37;0.50;;;13.70;75.40;;;;;;2313932;53;20956;-75
2021/12/04 14:50:42;;;;;;;2.30;0.82;;;13.70;75.40;;;;;;2545520;53;21037;-75
2021/12/04 14:53:11;;;;;;;1.52;0.62;;;13.60;75.00;;;;;;2293268;54;21014;-77
2021/12/04 14:55:38;;;;;;;1.48;0.62;;;13.60;75.10;;;;;;2288244;54;21020;-76
2021/12/04 14:58:11;;;;;;;2.00;0.70;;;13.70;75.30;;;;;;2304534;54;20968;-76
2021/12/04 15:00:48;;;;;;;2.80;1.00;;;13.60;75.00;;;;;;2312284;54;21110;-76
2021/12/04 15:03:27;;;;;;;3.42;1.48;;;13.60;75.20;;;;;;2296276;54;21369;-75
2021/12/04 15:05:57;;;;;;;2.42;0.82;;;13.60;75.00;;;;;;2296542;53;20984;-76
2021/12/04 15:08:31;;;;;;;2.37;0.82;;;13.60;75.20;;;;;;2540880;53;21035;-76
2021/12/04 15:11:21;;;;;;;1.62;0.70;;;13.60;74.70;;;;;;2521431;54;20971;-75
2021/12/04 15:14:02;;;;;;;2.15;0.70;;;13.60;74.40;;;;;;2542620;53;20964;-75
2021/12/04 15:16:42;;;;;;;2.22;0.60;;;13.60;74.70;;;;;;2543329;53;20963;-75
2021/12/04 15:19:15;;;;;;;1.98;0.70;;;13.60;75.00;;;;;;2554255;54;21019;-75
2021/12/04 15:21:57;;;;;;;2.85;0.70;;;13.60;74.40;;;;;;2314078;54;21435;-76
2021/12/04 15:24:32;;;;;;;1.40;0.53;;;13.60;74.60;;;;;;2550587;54;20994;-75
2021/12/04 15:27:03;;;;;;;1.98;0.70;;;13.60;74.30;;;;;;2554381;54;20967;-75
2021/12/04 15:29:30;;;;;;;2.22;0.80;;;13.60;74.40;;;;;;2314074;54;21009;-76
2021/12/04 15:31:58;;;;;;;2.20;1.02;;;13.60;74.40;;;;;;2552407;54;21472;-75
2021/12/04 15:34:33;;;;;;;2.40;1.00;;;13.60;74.20;;;;;;2313580;55;20967;-76
2021/12/04 15:37:03;;;;;;;2.85;0.90;;;13.60;73.90;;;;;;2513813;54;21528;-76
2021/12/04 15:39:44;;;;;;;2.50;1.00;;;13.50;74.10;;;;;;2301778;53;21136;-76
2021/12/04 15:42:19;;;;;;;2.03;0.90;;;13.50;74.20;;;;;;2548230;53;22178;-75
2021/12/04 15:44:57;;;;;;;2.28;1.05;;;13.50;74.10;;;;;;2312330;54;20987;-75
2021/12/04 15:47:37;;;;;;;2.30;1.00;;;13.50;74.20;;;;;;2307382;54;20911;-75
2021/12/04 15:51:04;;;;;;;3.50;1.05;;;13.50;73.90;;;;;;2539751;53;20932;-75
2021/12/04 15:53:31;;;;;;;2.80;1.20;;;13.50;73.70;;;;;;2292418;54;21007;-75
2021/12/04 15:55:59;;;;;;;2.90;1.40;;;13.40;73.70;;;;;;2313154;54;20926;-75